sim
Sign-in with your pilot id or email,
or register
Callsign
Passwort

Schedule Details

Flight Number: RYR2175 (2)
Departure: Dortmund Airport (EDLW) at 17:10
Arrival: Thessaloniki International Airport (LGTS) at 19:55
Route: Ryanair Passenger Schedule. Enter filed route here before submitting Pirep.

Weather Information
Getting current METAR information for EDLW 211550Z 25008KT 9999 BKN045 11/05 Q1026
Getting current METAR information for LGTS 211550Z 35005KT CAVOK 14/00 Q1021 NOSIG

Schedule Frequency

Route Map